Hollis, Oklahoma
Current Conditions -  °F | °C
As of 7:53 PM on Thursday 18 Dec 2014 (Local Time) from KCDS Reporting Station
Overcast Overcast  
Wind Chill:   Ceiling: 1700
Heat Index:   Visibility: 10mi
Dew Point:   Wind: 5mph
Humidity: 79%   Direction: 90°E
Pressure: 30.17"   Gusts: NA
Location:  34.69°N, 99.91°W
Report Text: KCDS 190153Z AUTO 09004KT 10SM OVC017 07/03 A3017 RMK AO2 SLP218 T00670033
Loading
Personal Weather Stations






























Interactive Weather Map New forecast layout! Learn more

10-Day Weather Forecast

Advertisements
Track Severe Weather on mobile